createdAt,value
2023-02-14T00:01:10.418Z,22.45
2023-02-14T00:03:37.698Z,24.13
2023-02-14T00:06:09.971Z,23.58
2023-02-14T00:08:37.443Z,23.50
2023-02-14T00:11:05.605Z,23.05
2023-02-14T00:13:32.782Z,24.67
2023-02-14T00:16:00.023Z,23.55
2023-02-14T00:18:45.715Z,24.63
2023-02-14T00:21:12.889Z,21.98
2023-02-14T00:23:40.444Z,21.77
2023-02-14T00:26:14.061Z,22.38
2023-02-14T00:28:42.789Z,23.58
2023-02-14T00:31:10.216Z,21.85
2023-02-14T00:33:37.674Z,22.23
2023-02-14T00:36:08.100Z,23.48
2023-02-14T00:38:35.470Z,21.45
2023-02-14T00:41:02.811Z,22.60
2023-02-14T00:43:29.951Z,21.60
2023-02-14T00:45:57.805Z,23.27
2023-02-14T00:48:25.613Z,22.23
2023-02-14T00:50:52.767Z,22.58
2023-02-14T00:53:19.848Z,22.13
2023-02-14T00:55:47.198Z,22.40
2023-02-14T00:58:15.300Z,20.90
2023-02-14T01:00:42.508Z,21.52
2023-02-14T01:03:09.681Z,21.90
2023-02-14T01:05:37.033Z,23.92
2023-02-14T01:08:04.762Z,23.15
2023-02-14T01:10:32.060Z,21.40
2023-02-14T01:12:59.549Z,22.60
2023-02-14T01:15:28.433Z,22.27
2023-02-14T01:17:55.573Z,23.63
2023-02-14T01:20:22.675Z,24.52
2023-02-14T01:22:49.755Z,23.10
2023-02-14T01:25:17.168Z,21.08
2023-02-14T01:27:44.325Z,23.15
2023-02-14T01:30:14.331Z,24.08
2023-02-14T01:32:42.501Z,22.67
2023-02-14T01:35:10.542Z,22.90
2023-02-14T01:37:37.761Z,24.45
2023-02-14T01:40:08.451Z,22.73
2023-02-14T01:42:37.449Z,23.67
2023-02-14T01:45:22.342Z,21.75
2023-02-14T01:47:53.528Z,23.27
2023-02-14T01:50:35.828Z,23.42
2023-02-14T01:53:11.604Z,21.30
2023-02-14T01:55:45.309Z,21.40
2023-02-14T01:58:23.903Z,21.77
2023-02-14T02:01:00.332Z,22.55
2023-02-14T02:03:51.000Z,24.10
2023-02-14T02:06:23.622Z,20.73
2023-02-14T02:09:25.720Z,21.73
2023-02-14T02:11:53.585Z,20.92
2023-02-14T02:14:23.088Z,21.17
2023-02-14T02:16:53.217Z,24.30
2023-02-14T02:19:45.726Z,21.30
2023-02-14T02:22:24.758Z,23.33
2023-02-14T02:25:14.029Z,23.55
2023-02-14T02:27:50.225Z,23.00
2023-02-14T02:30:20.146Z,23.98
2023-02-14T02:33:07.011Z,24.10
2023-02-14T02:35:54.398Z,25.45
2023-02-14T02:38:47.722Z,26.52
2023-02-14T02:41:32.978Z,24.55
2023-02-14T02:44:09.221Z,24.83
2023-02-14T02:46:48.553Z,24.75
2023-02-14T02:50:16.329Z,25.40
2023-02-14T02:53:06.549Z,25.77
2023-02-14T02:56:12.812Z,27.83
2023-02-14T02:58:40.841Z,25.38
2023-02-14T03:01:12.615Z,21.45
2023-02-14T03:04:10.974Z,23.58
2023-02-14T03:06:38.003Z,24.90
2023-02-14T03:09:36.148Z,24.30
2023-02-14T03:12:24.763Z,21.38
2023-02-14T03:15:23.176Z,23.10
2023-02-14T03:17:56.112Z,21.38
2023-02-14T03:20:34.283Z,22.20
2023-02-14T03:23:11.016Z,23.02
2023-02-14T03:25:51.261Z,21.05
2023-02-14T03:28:23.802Z,21.38
2023-02-14T03:31:06.327Z,23.70
2023-02-14T03:33:58.281Z,21.13
2023-02-14T03:36:50.736Z,21.73
2023-02-14T03:39:51.830Z,20.85
2023-02-14T03:42:31.125Z,20.98
2023-02-14T03:45:00.674Z,20.38
2023-02-14T03:47:31.966Z,21.52
2023-02-14T03:50:26.096Z,22.95
2023-02-14T03:52:55.746Z,22.00
2023-02-14T03:55:49.343Z,19.35
2023-02-14T03:58:32.759Z,19.70
2023-02-14T04:01:22.270Z,21.50
2023-02-14T04:03:50.489Z,21.42
2023-02-14T04:06:20.029Z,20.08
2023-02-14T04:08:47.146Z,18.80
2023-02-14T04:11:14.622Z,20.77
2023-02-14T04:13:44.530Z,19.67
2023-02-14T04:16:11.787Z,22.75
2023-02-14T04:18:57.299Z,22.63
2023-02-14T04:21:24.710Z,20.65
2023-02-14T04:23:51.839Z,19.25
2023-02-14T04:26:18.871Z,21.08
2023-02-14T04:28:46.056Z,21.25
2023-02-14T04:31:13.201Z,21.88
2023-02-14T04:33:40.433Z,21.73
2023-02-14T04:36:07.672Z,22.73
2023-02-14T04:38:34.762Z,23.67
2023-02-14T04:41:02.235Z,21.17
2023-02-14T04:43:29.712Z,22.02
2023-02-14T04:45:56.882Z,21.83
2023-02-14T04:48:23.973Z,22.35
2023-02-14T04:50:55.144Z,25.00
2023-02-14T04:53:22.761Z,24.90
2023-02-14T04:55:50.306Z,26.45
2023-02-14T04:58:17.891Z,24.35
2023-02-14T05:00:45.144Z,26.75
2023-02-14T05:03:12.268Z,28.27
2023-02-14T05:05:39.462Z,26.48
2023-02-14T05:08:06.613Z,26.33
2023-02-14T05:10:33.771Z,26.67
2023-02-14T05:13:01.518Z,29.25
2023-02-14T05:15:28.646Z,31.45
2023-02-14T05:17:55.684Z,30.02
2023-02-14T05:20:22.831Z,34.20
2023-02-14T05:22:49.861Z,34.20
2023-02-14T05:25:16.993Z,37.88
2023-02-14T05:27:43.993Z,47.45
2023-02-14T05:30:12.228Z,54.90
2023-02-14T05:32:39.370Z,45.83
2023-02-14T05:35:06.736Z,42.28
2023-02-14T05:37:33.827Z,46.90
2023-02-14T05:40:00.879Z,45.20
2023-02-14T05:42:28.002Z,43.35
2023-02-14T05:44:55.154Z,43.75
2023-02-14T05:47:22.237Z,45.08
2023-02-14T05:49:49.332Z,47.33
2023-02-14T05:52:16.439Z,42.92
2023-02-14T05:54:43.510Z,38.97
2023-02-14T05:57:10.610Z,37.38
2023-02-14T05:59:37.626Z,38.50
2023-02-14T06:02:04.755Z,39.03
2023-02-14T06:04:31.842Z,35.72
2023-02-14T06:06:59.061Z,32.80
2023-02-14T06:09:26.136Z,33.97
2023-02-14T06:11:55.195Z,30.60
2023-02-14T06:14:22.560Z,28.90
2023-02-14T06:16:49.872Z,27.75
2023-02-14T06:19:16.957Z,29.25
2023-02-14T06:21:44.100Z,31.08
2023-02-14T06:24:11.134Z,29.73
2023-02-14T06:26:38.266Z,28.30
2023-02-14T06:29:05.481Z,29.52
2023-02-14T06:31:32.670Z,27.38
2023-02-14T06:33:59.988Z,25.90
2023-02-14T06:36:27.414Z,24.60
2023-02-14T06:38:54.513Z,24.15
2023-02-14T06:41:21.565Z,24.77
2023-02-14T06:43:51.430Z,24.40
2023-02-14T06:46:19.150Z,23.08
2023-02-14T06:48:46.661Z,24.50
2023-02-14T06:51:13.943Z,25.60
2023-02-14T06:53:41.259Z,25.20
2023-02-14T06:56:08.405Z,25.10
2023-02-14T06:58:35.761Z,25.50
2023-02-14T07:01:03.171Z,26.63
2023-02-14T07:03:30.462Z,26.67
2023-02-14T07:05:58.581Z,26.38
2023-02-14T07:08:26.370Z,30.33
2023-02-14T07:10:59.732Z,28.30
2023-02-14T07:13:27.223Z,29.73
2023-02-14T07:15:54.490Z,31.13
2023-02-14T07:18:21.601Z,30.17
2023-02-14T07:20:50.311Z,29.35
2023-02-14T07:23:17.607Z,29.08
2023-02-14T07:25:44.671Z,30.88
2023-02-14T07:28:11.717Z,31.25
2023-02-14T07:30:38.854Z,27.55
2023-02-14T07:33:06.162Z,25.08
2023-02-14T07:35:35.231Z,21.30
2023-02-14T07:38:02.328Z,22.50
2023-02-14T07:40:30.108Z,21.73
2023-02-14T07:42:58.325Z,21.02
2023-02-14T07:45:26.244Z,22.92
2023-02-14T07:47:55.249Z,21.67
2023-02-14T07:50:23.474Z,22.30
2023-02-14T07:52:50.954Z,24.17
2023-02-14T07:55:19.415Z,22.85
2023-02-14T07:57:48.987Z,22.70
2023-02-14T08:00:16.463Z,22.13
2023-02-14T08:02:43.942Z,22.80
2023-02-14T08:05:11.301Z,25.35
2023-02-14T08:07:38.424Z,27.25
2023-02-14T08:10:06.219Z,28.38
2023-02-14T08:12:52.103Z,26.63
2023-02-14T08:15:37.671Z,23.35
2023-02-14T08:18:04.857Z,27.95
2023-02-14T08:20:32.153Z,21.70
2023-02-14T08:22:59.312Z,23.65
2023-02-14T08:25:26.448Z,20.65
2023-02-14T08:27:55.280Z,34.03
2023-02-14T08:30:23.388Z,26.55
2023-02-14T08:32:50.615Z,33.45
2023-02-14T08:35:19.308Z,42.72
2023-02-14T08:37:46.475Z,30.38
2023-02-14T08:40:13.670Z,26.52
2023-02-14T08:42:40.969Z,26.38
2023-02-14T08:45:08.617Z,22.13
2023-02-14T08:47:36.064Z,27.48
2023-02-14T08:50:04.513Z,25.20
2023-02-14T08:52:31.632Z,25.70
2023-02-14T08:54:58.730Z,26.73
2023-02-14T08:57:27.909Z,23.88
2023-02-14T08:59:54.971Z,22.80
2023-02-14T09:02:21.980Z,21.98
2023-02-14T09:04:49.117Z,20.77
2023-02-14T09:07:16.216Z,19.02
2023-02-14T09:09:43.277Z,21.30
2023-02-14T09:12:10.982Z,19.55
2023-02-14T09:14:40.003Z,16.30
2023-02-14T09:17:07.820Z,15.40
2023-02-14T09:19:36.181Z,15.25
2023-02-14T09:22:04.325Z,14.93
2023-02-14T09:24:33.768Z,15.18
2023-02-14T09:27:01.007Z,14.32
2023-02-14T09:29:28.785Z,13.98
2023-02-14T09:32:01.442Z,11.85
2023-02-14T09:34:30.140Z,12.93
2023-02-14T09:37:15.798Z,13.43
2023-02-14T09:39:42.843Z,14.02
2023-02-14T09:42:12.721Z,13.63
2023-02-14T09:44:53.902Z,12.32
2023-02-14T09:47:49.168Z,12.98
2023-02-14T09:50:34.614Z,13.48
2023-02-14T09:53:08.224Z,10.60
2023-02-14T09:55:47.490Z,12.10
2023-02-14T09:58:23.535Z,13.20
2023-02-14T10:01:00.872Z,13.00
2023-02-14T10:03:46.864Z,10.85
2023-02-14T10:06:43.883Z,14.32
2023-02-14T10:09:37.467Z,11.88
2023-02-14T10:12:09.105Z,11.52
2023-02-14T10:14:41.107Z,10.32
2023-02-14T10:17:14.307Z,9.70
2023-02-14T10:20:02.955Z,12.93
2023-02-14T10:22:41.784Z,11.68
2023-02-14T10:25:22.590Z,12.27
2023-02-14T10:27:50.158Z,10.85
2023-02-14T10:30:21.425Z,11.15
2023-02-14T10:32:50.422Z,12.75
2023-02-14T10:36:02.331Z,13.02
2023-02-14T10:38:51.017Z,12.18
2023-02-14T10:41:48.587Z,10.02
2023-02-14T10:44:46.281Z,12.05
2023-02-14T10:47:28.363Z,12.10
2023-02-14T10:50:37.345Z,12.05
2023-02-14T10:53:42.043Z,9.15
2023-02-14T10:56:20.235Z,10.80
2023-02-14T10:58:49.760Z,10.40
2023-02-14T11:01:18.683Z,10.85
2023-02-14T11:04:04.250Z,12.60
2023-02-14T11:06:31.727Z,10.25
2023-02-14T11:08:59.279Z,11.00
2023-02-14T11:11:49.549Z,11.32
2023-02-14T11:14:25.982Z,11.52
2023-02-14T11:16:54.717Z,11.55
2023-02-14T11:19:28.077Z,10.93
2023-02-14T11:21:58.506Z,9.95
2023-02-14T11:24:31.646Z,10.00
2023-02-14T11:27:08.242Z,10.00
2023-02-14T11:29:53.186Z,11.15
2023-02-14T11:32:24.686Z,11.55
2023-02-14T11:34:58.105Z,9.95
2023-02-14T11:37:28.651Z,10.13
2023-02-14T11:39:58.716Z,9.88
2023-02-14T11:42:46.588Z,11.05
2023-02-14T11:45:31.793Z,10.27
2023-02-14T11:48:41.976Z,9.60
2023-02-14T11:51:14.627Z,8.80
2023-02-14T11:53:53.578Z,10.90
2023-02-14T11:56:22.210Z,10.35
2023-02-14T11:58:56.660Z,9.25
2023-02-14T12:01:35.758Z,9.38
2023-02-14T12:04:14.310Z,8.85
2023-02-14T12:06:41.525Z,9.15
2023-02-14T12:09:26.421Z,10.85
2023-02-14T12:12:05.085Z,9.95
2023-02-14T12:14:35.472Z,9.00
2023-02-14T12:17:17.501Z,10.25
2023-02-14T12:19:47.542Z,7.43
2023-02-14T12:22:19.350Z,10.50
2023-02-14T12:25:05.216Z,8.38
2023-02-14T12:27:57.022Z,8.88
2023-02-14T12:30:26.412Z,10.20
2023-02-14T12:32:58.769Z,10.65
2023-02-14T12:35:31.984Z,8.02
2023-02-14T12:38:12.052Z,8.75
2023-02-14T12:40:57.369Z,8.75
2023-02-14T12:43:43.555Z,9.10
2023-02-14T12:49:14.105Z,9.95
2023-02-14T12:51:59.902Z,7.75
2023-02-14T12:54:42.388Z,8.10
2023-02-14T12:57:41.228Z,7.53
2023-02-14T13:00:32.150Z,7.43
2023-02-14T13:03:11.193Z,7.07
2023-02-14T13:06:04.693Z,19.60
2023-02-14T13:09:04.040Z,9.63
2023-02-14T13:11:58.851Z,8.70
2023-02-14T13:14:48.204Z,8.63
2023-02-14T13:17:35.616Z,8.95
2023-02-14T13:20:08.812Z,8.45
2023-02-14T13:22:36.699Z,7.82
2023-02-14T13:25:13.346Z,7.32
2023-02-14T13:27:41.657Z,8.60
2023-02-14T13:30:25.226Z,7.97
2023-02-14T13:32:55.593Z,8.98
2023-02-14T13:35:24.192Z,8.40
2023-02-14T13:37:58.906Z,7.00
2023-02-14T13:40:28.191Z,7.75
2023-02-14T13:42:57.891Z,10.77
2023-02-14T13:45:37.777Z,8.40
2023-02-14T13:48:06.632Z,9.05
2023-02-14T13:50:38.541Z,9.68
2023-02-14T13:53:06.198Z,7.77
2023-02-14T13:55:37.196Z,8.07
2023-02-14T13:58:21.854Z,8.38
2023-02-14T14:00:51.336Z,8.00
2023-02-14T14:03:28.936Z,6.68
2023-02-14T14:06:11.471Z,8.27
2023-02-14T14:08:48.090Z,6.20
2023-02-14T14:11:21.236Z,6.20
2023-02-14T14:14:30.176Z,6.13
2023-02-14T14:17:00.907Z,7.28
2023-02-14T14:19:28.222Z,7.28
2023-02-14T14:22:10.343Z,7.53
2023-02-14T14:24:50.893Z,8.00
2023-02-14T14:27:29.278Z,8.93
2023-02-14T14:29:56.417Z,7.25
2023-02-14T14:32:35.767Z,7.72
2023-02-14T14:35:18.026Z,7.50
2023-02-14T14:37:51.192Z,7.40
2023-02-14T14:40:20.324Z,8.32
2023-02-14T14:42:48.947Z,7.63
2023-02-14T14:45:25.598Z,8.35
2023-02-14T14:47:55.216Z,7.72
2023-02-14T14:50:28.541Z,7.82
2023-02-14T14:53:05.569Z,8.13
2023-02-14T14:55:44.555Z,7.40
2023-02-14T14:58:36.557Z,7.78
2023-02-14T15:01:05.407Z,7.85
2023-02-14T15:03:33.053Z,11.00
2023-02-14T15:06:21.990Z,8.50
2023-02-14T15:08:50.080Z,12.77
2023-02-14T15:12:04.093Z,9.07
2023-02-14T15:14:36.140Z,11.05
2023-02-14T15:17:14.460Z,10.47
2023-02-14T15:19:50.989Z,9.15
2023-02-14T15:22:24.731Z,9.35
2023-02-14T15:24:52.095Z,8.95
2023-02-14T15:27:23.415Z,11.68
2023-02-14T15:30:06.772Z,11.48
2023-02-14T15:32:36.370Z,19.88
2023-02-14T15:35:06.859Z,11.93
2023-02-14T15:37:34.782Z,9.85
2023-02-14T15:40:02.691Z,16.65
2023-02-14T15:42:33.075Z,21.90
2023-02-14T15:45:28.303Z,15.80
2023-02-14T15:48:04.628Z,20.13
2023-02-14T15:50:36.664Z,20.02
2023-02-14T15:53:21.118Z,17.83
2023-02-14T15:55:50.035Z,10.00
2023-02-14T15:58:28.378Z,9.60
2023-02-14T16:00:56.342Z,13.93
2023-02-14T16:03:26.894Z,11.07
2023-02-14T16:05:55.059Z,12.35
2023-02-14T16:08:35.448Z,11.32
2023-02-14T16:11:14.575Z,10.88
2023-02-14T16:13:51.497Z,9.90
2023-02-14T16:16:20.383Z,8.85
2023-02-14T16:18:48.889Z,9.85
2023-02-14T16:21:35.015Z,12.07
2023-02-14T16:24:10.854Z,14.85
2023-02-14T16:26:43.329Z,14.18
2023-02-14T16:29:16.642Z,26.15
2023-02-14T16:32:14.531Z,49.53
2023-02-14T16:34:43.370Z,35.25
2023-02-14T16:37:29.242Z,40.50
2023-02-14T16:39:58.701Z,34.33
2023-02-14T16:42:26.326Z,27.10
2023-02-14T16:44:55.650Z,24.02
2023-02-14T16:47:23.296Z,20.50
2023-02-14T16:49:53.475Z,22.33
2023-02-14T16:52:25.785Z,19.55
2023-02-14T16:54:53.998Z,16.10
2023-02-14T16:57:33.822Z,16.83
2023-02-14T17:00:01.693Z,17.00
2023-02-14T17:02:29.369Z,16.40
2023-02-14T17:04:57.251Z,17.50
2023-02-14T17:07:24.688Z,19.30
2023-02-14T17:09:57.789Z,20.95
2023-02-14T17:12:30.387Z,21.33
2023-02-14T17:15:02.332Z,27.10
2023-02-14T17:17:30.491Z,28.40
2023-02-14T17:19:58.868Z,22.08
2023-02-14T17:22:26.641Z,31.30
2023-02-14T17:24:56.694Z,29.45
2023-02-14T17:27:24.604Z,27.58
2023-02-14T17:29:52.311Z,30.23
2023-02-14T17:32:20.142Z,30.63
2023-02-14T17:34:48.528Z,29.38
2023-02-14T17:37:16.586Z,26.65
2023-02-14T17:39:46.088Z,27.58
2023-02-14T17:42:13.580Z,27.00
2023-02-14T17:44:41.425Z,25.70
2023-02-14T17:47:09.201Z,24.88
2023-02-14T17:49:36.898Z,26.38
2023-02-14T17:52:04.950Z,23.00
2023-02-14T17:54:38.847Z,24.33
2023-02-14T17:57:06.497Z,24.80
2023-02-14T17:59:34.900Z,23.65
2023-02-14T18:02:02.917Z,21.48
2023-02-14T18:04:32.409Z,26.10
2023-02-14T18:07:00.760Z,32.10
2023-02-14T18:09:29.061Z,30.33
2023-02-14T18:11:57.295Z,29.30
2023-02-14T18:14:25.393Z,31.30
2023-02-14T18:16:53.197Z,31.63
2023-02-14T18:19:21.352Z,32.17
2023-02-14T18:21:50.484Z,34.85
2023-02-14T18:24:18.807Z,41.25
2023-02-14T18:26:47.166Z,39.60
2023-02-14T18:29:15.621Z,37.90
2023-02-14T18:31:44.820Z,40.97
2023-02-14T18:34:13.538Z,41.33
2023-02-14T18:36:43.305Z,44.75
2023-02-14T18:39:11.436Z,44.47
2023-02-14T18:41:39.967Z,45.50
2023-02-14T18:44:08.513Z,45.72
2023-02-14T18:46:37.560Z,44.80
2023-02-14T18:49:09.229Z,45.08
2023-02-14T18:51:40.026Z,43.80
2023-02-14T18:54:08.687Z,38.45
2023-02-14T18:56:38.542Z,37.17
2023-02-14T18:59:11.445Z,37.53
2023-02-14T19:01:42.700Z,39.47
2023-02-14T19:06:43.088Z,35.75
2023-02-14T19:09:15.402Z,41.25
2023-02-14T19:11:44.773Z,39.90
2023-02-14T19:14:14.026Z,41.70
2023-02-14T19:16:51.268Z,45.83
2023-02-14T19:19:22.713Z,47.47
2023-02-14T19:21:52.027Z,45.60
2023-02-14T19:24:20.953Z,43.47
2023-02-14T19:26:49.382Z,46.00
2023-02-14T19:29:19.847Z,42.10
2023-02-14T19:31:55.609Z,43.10
2023-02-14T19:34:31.602Z,42.42
2023-02-14T19:37:03.681Z,42.60
2023-02-14T19:39:34.099Z,44.20
2023-02-14T19:42:08.850Z,52.40
2023-02-14T19:44:38.695Z,46.00
2023-02-14T19:47:19.401Z,53.15
2023-02-14T19:49:53.653Z,67.18
2023-02-14T19:52:26.881Z,58.92
2023-02-14T19:54:57.862Z,64.78
2023-02-14T19:57:26.509Z,63.55
2023-02-14T19:59:54.948Z,60.33
2023-02-14T20:02:24.106Z,57.15
2023-02-14T20:04:54.110Z,56.17
2023-02-14T20:07:23.103Z,55.38
2023-02-14T20:09:51.635Z,56.28
2023-02-14T20:12:20.280Z,60.15
2023-02-14T20:14:52.045Z,62.58
2023-02-14T20:17:22.219Z,64.82
2023-02-14T20:19:50.796Z,64.70
2023-02-14T20:22:21.450Z,64.10
2023-02-14T20:24:49.992Z,61.88
2023-02-14T20:27:19.308Z,59.67
2023-02-14T20:29:50.269Z,62.10
2023-02-14T20:32:19.898Z,53.40
2023-02-14T20:34:49.495Z,52.95
2023-02-14T20:37:18.535Z,55.22
2023-02-14T20:39:47.392Z,49.58
2023-02-14T20:42:18.981Z,49.85
2023-02-14T20:45:08.360Z,47.72
2023-02-14T20:47:37.261Z,45.95
2023-02-14T20:50:06.425Z,41.72
2023-02-14T20:52:37.602Z,46.70
2023-02-14T20:55:09.583Z,51.67
2023-02-14T20:57:41.312Z,50.42
2023-02-14T21:00:11.257Z,46.53
2023-02-14T21:02:39.890Z,46.53
2023-02-14T21:05:09.976Z,45.38
2023-02-14T21:07:42.091Z,46.13
2023-02-14T21:10:10.512Z,45.13
2023-02-14T21:12:39.283Z,48.80
2023-02-14T21:15:09.864Z,47.72
2023-02-14T21:17:39.623Z,48.15
2023-02-14T21:20:11.200Z,44.03
2023-02-14T21:22:39.766Z,45.33
2023-02-14T21:25:08.698Z,46.78
2023-02-14T21:27:37.330Z,45.13
2023-02-14T21:30:06.183Z,47.65
2023-02-14T21:32:34.259Z,46.33
2023-02-14T21:35:03.881Z,42.60
2023-02-14T21:37:33.371Z,46.28
2023-02-14T21:40:01.589Z,48.33
2023-02-14T21:42:29.919Z,56.90
2023-02-14T21:45:16.598Z,49.03
2023-02-14T21:48:04.800Z,45.17
2023-02-14T21:50:33.284Z,44.97
2023-02-14T21:53:21.423Z,44.45
2023-02-14T21:55:49.606Z,42.78
2023-02-14T21:58:17.651Z,44.17
2023-02-14T22:00:47.021Z,44.60
2023-02-14T22:03:14.443Z,48.05
2023-02-14T22:05:41.892Z,46.97
2023-02-14T22:08:09.503Z,44.65
2023-02-14T22:10:39.841Z,47.60
2023-02-14T22:13:07.429Z,50.05
2023-02-14T22:15:34.542Z,46.40
2023-02-14T22:18:01.999Z,48.10
2023-02-14T22:20:29.092Z,53.05
2023-02-14T22:22:56.254Z,56.45
2023-02-14T22:25:25.358Z,59.25
2023-02-14T22:27:52.412Z,52.97
2023-02-14T22:30:19.612Z,52.10
2023-02-14T22:32:46.739Z,53.33
2023-02-14T22:35:13.829Z,50.72
2023-02-14T22:37:40.913Z,52.35
2023-02-14T22:40:08.543Z,49.20
2023-02-14T22:42:35.563Z,51.03
2023-02-14T22:45:03.432Z,49.38
2023-02-14T22:47:32.047Z,48.50
2023-02-14T22:50:01.084Z,47.65
2023-02-14T22:52:28.422Z,47.83
2023-02-14T22:54:55.424Z,47.25
2023-02-14T22:57:22.473Z,48.17
2023-02-14T22:59:49.526Z,45.20
2023-02-14T23:02:16.598Z,48.10
2023-02-14T23:04:43.722Z,49.78
2023-02-14T23:07:11.892Z,49.88
2023-02-14T23:09:39.012Z,46.72
2023-02-14T23:12:26.212Z,46.53
2023-02-14T23:15:11.892Z,48.53
2023-02-14T23:18:08.027Z,51.97
2023-02-14T23:20:53.905Z,46.55
2023-02-14T23:23:21.053Z,52.15
2023-02-14T23:25:48.111Z,45.67
2023-02-14T23:28:15.320Z,45.33
2023-02-14T23:30:42.355Z,43.85
2023-02-14T23:33:09.480Z,48.78
2023-02-14T23:35:37.691Z,55.42
2023-02-14T23:38:04.710Z,52.88
2023-02-14T23:40:51.785Z,55.58
2023-02-14T23:43:18.908Z,56.67
2023-02-14T23:45:45.956Z,49.63
2023-02-14T23:48:13.086Z,46.85
2023-02-14T23:50:40.175Z,52.40
2023-02-14T23:53:07.450Z,49.13
2023-02-14T23:55:34.583Z,50.08
2023-02-14T23:58:01.665Z,49.47
